createdAt,value
2023-01-31T00:00:12.403Z,-0.87
2023-01-31T00:02:45.861Z,-0.86
2023-01-31T00:05:20.550Z,-0.80
2023-01-31T00:07:54.251Z,-0.78
2023-01-31T00:10:29.379Z,-0.83
2023-01-31T00:13:03.515Z,-0.85
2023-01-31T00:15:37.351Z,-0.80
2023-01-31T00:18:10.957Z,-0.77
2023-01-31T00:20:44.202Z,-0.82
2023-01-31T00:23:17.851Z,-0.80
2023-01-31T00:25:52.676Z,-0.79
2023-01-31T00:28:26.335Z,-0.75
2023-01-31T00:30:59.978Z,-0.64
2023-01-31T00:33:33.108Z,-0.56
2023-01-31T00:36:08.316Z,-0.68
2023-01-31T00:38:42.251Z,-0.69
2023-01-31T00:41:17.063Z,-0.77
2023-01-31T00:43:51.199Z,-0.67
2023-01-31T00:46:25.122Z,-0.68
2023-01-31T00:48:58.393Z,-0.55
2023-01-31T00:51:31.790Z,-0.53
2023-01-31T00:54:05.303Z,-0.51
2023-01-31T00:56:40.037Z,-0.52
2023-01-31T00:59:13.529Z,-0.63
2023-01-31T01:01:47.017Z,-0.69
2023-01-31T01:04:20.458Z,-0.59
2023-01-31T01:06:54.140Z,-0.65
2023-01-31T01:09:27.490Z,-0.50
2023-01-31T01:12:03.167Z,-0.52
2023-01-31T01:14:37.184Z,-0.50
2023-01-31T01:17:11.011Z,-0.71
2023-01-31T01:19:44.354Z,-0.84
2023-01-31T01:22:17.725Z,-0.77
2023-01-31T01:24:51.058Z,-0.62
2023-01-31T01:27:27.370Z,-0.55
2023-01-31T01:30:02.141Z,-0.68
2023-01-31T01:32:36.355Z,-0.70
2023-01-31T01:35:10.962Z,-0.53
2023-01-31T01:37:44.160Z,-0.65
2023-01-31T01:40:17.571Z,-0.65
2023-01-31T01:42:52.338Z,-0.73
2023-01-31T01:45:26.128Z,-0.72
2023-01-31T01:48:00.911Z,-0.72
2023-01-31T01:50:37.868Z,-0.69
2023-01-31T01:53:15.551Z,-0.59
2023-01-31T01:55:51.758Z,-0.57
2023-01-31T01:58:30.152Z,-0.77
2023-01-31T02:01:05.224Z,-0.53
2023-01-31T02:03:39.821Z,-0.58
2023-01-31T02:06:13.669Z,-0.73
2023-01-31T02:08:47.034Z,-0.61
2023-01-31T02:11:24.249Z,-0.55
2023-01-31T02:14:03.588Z,-0.61
2023-01-31T02:16:37.555Z,-0.68
2023-01-31T02:19:21.164Z,-0.77
2023-01-31T02:22:15.592Z,-0.70
2023-01-31T02:25:24.947Z,-0.46
2023-01-31T02:28:46.885Z,-0.34
2023-01-31T02:31:55.749Z,-0.45
2023-01-31T02:34:38.443Z,-0.43
2023-01-31T02:37:24.343Z,-0.42
2023-01-31T02:40:05.392Z,-0.59
2023-01-31T02:42:49.090Z,-0.54
2023-01-31T02:45:32.759Z,-0.55
2023-01-31T02:48:20.287Z,-0.49
2023-01-31T02:51:01.892Z,-0.37
2023-01-31T02:53:37.322Z,-0.44
2023-01-31T02:56:20.443Z,-0.44
2023-01-31T02:58:59.205Z,-0.28
2023-01-31T03:01:36.723Z,-0.21
2023-01-31T03:04:12.458Z,-0.18
2023-01-31T03:07:00.033Z,-0.32
2023-01-31T03:09:40.944Z,-0.27
2023-01-31T03:12:37.458Z,-0.20
2023-01-31T03:15:25.618Z,-0.12
2023-01-31T03:18:02.159Z,-0.05
2023-01-31T03:20:44.187Z,-0.26
2023-01-31T03:23:22.481Z,-0.31
2023-01-31T03:25:58.915Z,-0.41
2023-01-31T03:28:37.156Z,-0.40
2023-01-31T03:31:18.697Z,-0.37
2023-01-31T03:33:55.981Z,-0.37
2023-01-31T03:36:34.816Z,-0.20
2023-01-31T03:39:17.795Z,-0.34
2023-01-31T03:41:58.871Z,-0.18
2023-01-31T03:44:40.748Z,-0.13
2023-01-31T03:47:18.389Z,-0.27
2023-01-31T03:49:54.003Z,-0.10
2023-01-31T03:52:32.570Z,-0.24
2023-01-31T03:55:12.048Z,-0.18
2023-01-31T03:57:47.473Z,-0.19
2023-01-31T04:00:23.655Z,-0.10
2023-01-31T04:03:03.233Z,-0.24
2023-01-31T04:05:37.096Z,-0.15
2023-01-31T04:08:10.983Z,-0.13
2023-01-31T04:10:45.935Z,-0.03
2023-01-31T04:13:19.748Z,-0.01
2023-01-31T04:15:53.720Z,-0.04
2023-01-31T04:18:27.358Z,-0.10
2023-01-31T04:21:00.808Z,-0.03
2023-01-31T04:23:34.327Z,0.01
2023-01-31T04:26:09.294Z,0.03
2023-01-31T04:28:42.744Z,-0.03
2023-01-31T04:31:16.169Z,-0.02
2023-01-31T04:33:49.799Z,-0.17
2023-01-31T04:36:23.437Z,-0.15
2023-01-31T04:38:56.708Z,-0.17
2023-01-31T04:41:32.003Z,-0.16
2023-01-31T04:44:05.709Z,-0.13
2023-01-31T04:46:39.135Z,-0.17
2023-01-31T04:49:12.548Z,-0.18
2023-01-31T04:51:46.248Z,-0.24
2023-01-31T04:54:19.597Z,-0.33
2023-01-31T04:56:54.397Z,-0.47
2023-01-31T04:59:27.660Z,-0.53
2023-01-31T05:02:01.955Z,-0.40
2023-01-31T05:04:35.585Z,-0.26
2023-01-31T05:07:09.191Z,-0.22
2023-01-31T05:09:44.066Z,-0.16
2023-01-31T05:12:19.203Z,-0.22
2023-01-31T05:14:53.087Z,-0.18
2023-01-31T05:17:29.751Z,-0.20
2023-01-31T05:20:04.007Z,-0.05
2023-01-31T05:22:37.783Z,-0.01
2023-01-31T05:25:11.350Z,-0.02
2023-01-31T05:27:45.949Z,-0.02
2023-01-31T05:30:20.087Z,-0.10
2023-01-31T05:32:53.601Z,-0.11
2023-01-31T05:35:27.048Z,-0.05
2023-01-31T05:38:03.389Z,-0.09
2023-01-31T05:40:37.161Z,-0.17
2023-01-31T05:43:11.795Z,-0.15
2023-01-31T05:45:45.568Z,-0.17
2023-01-31T05:48:18.754Z,-0.20
2023-01-31T05:50:52.366Z,-0.11
2023-01-31T05:53:26.327Z,-0.07
2023-01-31T05:56:00.343Z,-0.11
2023-01-31T05:58:35.146Z,-0.21
2023-01-31T06:01:08.502Z,-0.07
2023-01-31T06:03:41.680Z,-0.15
2023-01-31T06:06:15.589Z,-0.04
2023-01-31T06:08:49.372Z,0.01
2023-01-31T06:11:23.032Z,0.03
2023-01-31T06:13:58.856Z,0.01
2023-01-31T06:16:32.366Z,0.06
2023-01-31T06:19:05.800Z,0.13
2023-01-31T06:21:39.274Z,0.10
2023-01-31T06:24:12.814Z,0.10
2023-01-31T06:26:46.291Z,0.16
2023-01-31T06:29:20.970Z,0.12
2023-01-31T06:31:54.799Z,0.23
2023-01-31T06:34:28.367Z,0.24
2023-01-31T06:37:01.961Z,0.25
2023-01-31T06:39:35.434Z,0.28
2023-01-31T06:42:09.135Z,0.20
2023-01-31T06:44:43.964Z,0.34
2023-01-31T06:47:17.463Z,0.46
2023-01-31T06:49:50.819Z,0.53
2023-01-31T06:52:23.996Z,0.60
2023-01-31T06:54:57.248Z,0.69
2023-01-31T06:57:30.817Z,0.76
2023-01-31T07:00:08.016Z,0.89
2023-01-31T07:02:41.122Z,0.95
2023-01-31T07:05:14.680Z,0.85
2023-01-31T07:07:47.984Z,1.01
2023-01-31T07:10:21.207Z,1.03
2023-01-31T07:12:57.848Z,1.05
2023-01-31T07:15:33.544Z,1.07
2023-01-31T07:18:07.779Z,1.10
2023-01-31T07:20:41.208Z,1.11
2023-01-31T07:23:14.559Z,1.14
2023-01-31T07:25:47.875Z,1.15
2023-01-31T07:28:21.367Z,1.20
2023-01-31T07:30:56.580Z,1.26
2023-01-31T07:33:30.239Z,1.26
2023-01-31T07:36:04.735Z,1.39
2023-01-31T07:38:38.430Z,1.45
2023-01-31T07:41:12.835Z,1.50
2023-01-31T07:43:46.527Z,1.61
2023-01-31T07:46:21.536Z,1.56
2023-01-31T07:48:54.834Z,1.72
2023-01-31T07:51:28.080Z,1.89
2023-01-31T07:54:01.503Z,1.94
2023-01-31T07:56:35.085Z,2.08
2023-01-31T07:59:08.329Z,2.16
2023-01-31T08:02:00.832Z,2.30
2023-01-31T08:04:36.412Z,2.39
2023-01-31T08:07:10.345Z,2.46
2023-01-31T08:09:47.331Z,2.54
2023-01-31T08:12:21.371Z,2.51
2023-01-31T08:14:55.250Z,2.48
2023-01-31T08:17:30.581Z,2.61
2023-01-31T08:20:04.299Z,2.64
2023-01-31T08:22:37.668Z,2.64
2023-01-31T08:25:11.466Z,2.68
2023-01-31T08:27:44.724Z,2.65
2023-01-31T08:30:18.510Z,2.67
2023-01-31T08:32:53.280Z,2.68
2023-01-31T08:35:26.860Z,2.68
2023-01-31T08:38:15.409Z,2.75
2023-01-31T08:40:50.219Z,2.74
2023-01-31T08:43:23.502Z,2.79
2023-01-31T08:45:57.029Z,2.83
2023-01-31T08:48:33.646Z,2.86
2023-01-31T08:51:10.103Z,2.89
2023-01-31T08:53:45.053Z,2.92
2023-01-31T08:56:21.507Z,2.90
2023-01-31T08:58:55.932Z,2.91
2023-01-31T09:01:30.353Z,2.87
2023-01-31T09:04:05.732Z,2.99
2023-01-31T09:06:39.038Z,3.03
2023-01-31T09:09:12.587Z,3.00
2023-01-31T09:11:46.775Z,3.12
2023-01-31T09:14:20.788Z,3.09
2023-01-31T09:16:55.352Z,3.19
2023-01-31T09:19:31.095Z,3.29
2023-01-31T09:22:04.479Z,3.35
2023-01-31T09:24:38.215Z,3.43
2023-01-31T09:27:11.485Z,3.48
2023-01-31T09:29:44.629Z,3.51
2023-01-31T09:32:18.281Z,3.56
2023-01-31T09:34:53.110Z,3.59
2023-01-31T09:37:26.223Z,3.58
2023-01-31T09:39:59.553Z,3.72
2023-01-31T09:42:37.220Z,3.73
2023-01-31T09:45:15.434Z,3.75
2023-01-31T09:47:52.008Z,3.78
2023-01-31T09:50:34.675Z,3.82
2023-01-31T09:53:11.420Z,3.85
2023-01-31T09:55:51.357Z,3.92
2023-01-31T09:58:34.885Z,3.93
2023-01-31T10:01:16.433Z,4.01
2023-01-31T10:04:00.710Z,4.03
2023-01-31T10:06:42.828Z,4.09
2023-01-31T10:09:24.928Z,4.11
2023-01-31T10:12:04.913Z,4.15
2023-01-31T10:14:46.968Z,4.14
2023-01-31T10:17:27.035Z,4.13
2023-01-31T10:20:08.078Z,4.16
2023-01-31T10:22:47.615Z,4.26
2023-01-31T10:25:36.026Z,4.29
2023-01-31T10:28:15.260Z,4.30
2023-01-31T10:30:56.704Z,4.30
2023-01-31T10:33:40.141Z,4.30
2023-01-31T10:36:20.399Z,4.27
2023-01-31T10:39:03.939Z,4.29
2023-01-31T10:41:46.382Z,4.38
2023-01-31T10:44:25.829Z,4.41
2023-01-31T10:47:00.613Z,4.50
2023-01-31T10:49:34.079Z,4.65
2023-01-31T10:52:28.583Z,4.77
2023-01-31T10:55:24.564Z,4.92
2023-01-31T10:57:59.241Z,5.08
2023-01-31T11:00:34.678Z,5.08
2023-01-31T11:03:08.563Z,5.21
2023-01-31T11:05:47.512Z,5.14
2023-01-31T11:08:32.591Z,5.19
2023-01-31T11:11:10.272Z,5.03
2023-01-31T11:13:58.201Z,5.04
2023-01-31T11:16:35.545Z,5.11
2023-01-31T11:19:20.925Z,5.19
2023-01-31T11:21:55.799Z,5.16
2023-01-31T11:24:31.600Z,5.19
2023-01-31T11:27:10.412Z,5.27
2023-01-31T11:29:51.618Z,5.46
2023-01-31T11:32:27.706Z,5.52
2023-01-31T11:35:03.728Z,5.44
2023-01-31T11:37:53.685Z,5.53
2023-01-31T11:40:33.470Z,5.34
2023-01-31T11:43:26.031Z,5.48
2023-01-31T11:46:01.167Z,5.69
2023-01-31T11:48:42.351Z,5.81
2023-01-31T11:51:32.322Z,5.77
2023-01-31T11:54:06.547Z,5.80
2023-01-31T11:56:40.012Z,5.84
2023-01-31T11:59:21.027Z,5.91
2023-01-31T12:01:57.575Z,5.90
2023-01-31T12:04:36.287Z,5.87
2023-01-31T12:07:23.619Z,5.98
2023-01-31T12:09:56.861Z,5.71
2023-01-31T12:12:35.730Z,6.14
2023-01-31T12:15:17.290Z,6.12
2023-01-31T12:17:51.827Z,6.03
2023-01-31T12:20:39.513Z,5.93
2023-01-31T12:23:25.688Z,5.67
2023-01-31T12:26:09.691Z,5.72
2023-01-31T12:28:59.572Z,5.72
2023-01-31T12:31:49.468Z,5.47
2023-01-31T12:34:50.501Z,5.35
2023-01-31T12:37:42.952Z,5.39
2023-01-31T12:40:39.135Z,5.31
2023-01-31T12:43:34.714Z,5.24
2023-01-31T12:46:14.255Z,5.17
2023-01-31T12:49:16.198Z,5.04
2023-01-31T12:52:00.966Z,5.14
2023-01-31T12:54:49.263Z,5.15
2023-01-31T12:57:31.994Z,5.12
2023-01-31T13:00:23.527Z,5.06
2023-01-31T13:03:25.193Z,4.86
2023-01-31T13:06:05.114Z,4.67
2023-01-31T13:08:42.351Z,4.83
2023-01-31T13:11:20.291Z,4.93
2023-01-31T13:13:58.465Z,5.00
2023-01-31T13:16:37.005Z,4.87
2023-01-31T13:19:19.338Z,4.94
2023-01-31T13:21:59.090Z,4.94
2023-01-31T13:24:38.342Z,4.93
2023-01-31T13:27:20.187Z,4.91
2023-01-31T13:30:00.132Z,4.92
2023-01-31T13:32:39.652Z,4.90
2023-01-31T13:35:22.439Z,4.82
2023-01-31T13:38:03.380Z,4.93
2023-01-31T13:40:43.062Z,4.77
2023-01-31T13:43:18.057Z,4.93
2023-01-31T13:45:58.165Z,4.96
2023-01-31T13:48:38.573Z,4.93
2023-01-31T13:51:17.987Z,5.02
2023-01-31T13:53:58.151Z,5.04
2023-01-31T13:56:35.080Z,5.01
2023-01-31T13:59:09.752Z,4.97
2023-01-31T14:01:47.832Z,4.90
2023-01-31T14:04:39.107Z,4.85
2023-01-31T14:07:21.661Z,4.68
2023-01-31T14:10:32.639Z,4.84
2023-01-31T14:13:37.840Z,4.86
2023-01-31T14:16:42.915Z,4.85
2023-01-31T14:19:56.808Z,4.84
2023-01-31T14:22:34.895Z,4.63
2023-01-31T14:25:15.591Z,4.67
2023-01-31T14:28:04.143Z,4.60
2023-01-31T14:30:41.897Z,4.66
2023-01-31T14:33:26.051Z,4.61
2023-01-31T14:36:35.561Z,4.57
2023-01-31T14:39:35.441Z,4.47
2023-01-31T14:42:44.477Z,4.50
2023-01-31T14:45:32.511Z,4.49
2023-01-31T14:48:28.430Z,4.42
2023-01-31T14:51:14.462Z,4.41
2023-01-31T14:54:29.284Z,4.41
2023-01-31T14:57:14.084Z,4.32
2023-01-31T14:59:56.755Z,4.28
2023-01-31T15:02:57.004Z,4.26
2023-01-31T15:05:45.564Z,4.22
2023-01-31T15:08:42.150Z,4.16
2023-01-31T15:11:42.562Z,4.11
2023-01-31T15:14:37.712Z,4.12
2023-01-31T15:17:33.066Z,3.96
2023-01-31T15:20:18.416Z,3.95
2023-01-31T15:22:58.978Z,3.98
2023-01-31T15:25:36.096Z,3.92
2023-01-31T15:28:13.927Z,3.89
2023-01-31T15:30:48.433Z,3.86
2023-01-31T15:33:28.385Z,3.82
2023-01-31T15:36:05.476Z,3.77
2023-01-31T15:38:45.077Z,3.76
2023-01-31T15:41:22.587Z,3.75
2023-01-31T15:43:57.519Z,3.74
2023-01-31T15:46:32.286Z,3.75
2023-01-31T15:49:37.949Z,3.69
2023-01-31T15:52:16.099Z,3.81
2023-01-31T15:54:55.927Z,3.82
2023-01-31T15:57:36.873Z,3.79
2023-01-31T16:00:19.818Z,3.79
2023-01-31T16:03:00.636Z,3.77
2023-01-31T16:05:35.999Z,3.77
2023-01-31T16:08:26.533Z,3.76
2023-01-31T16:11:04.866Z,3.70
2023-01-31T16:13:41.029Z,3.70
2023-01-31T16:16:15.911Z,3.66
2023-01-31T16:18:52.524Z,3.65
2023-01-31T16:21:29.027Z,3.57
2023-01-31T16:24:09.435Z,3.55
2023-01-31T16:26:56.879Z,3.60
2023-01-31T16:29:40.321Z,3.58
2023-01-31T16:32:18.056Z,3.57
2023-01-31T16:34:57.897Z,3.54
2023-01-31T16:37:35.526Z,3.57
2023-01-31T16:40:21.013Z,3.52
2023-01-31T16:43:10.240Z,3.50
2023-01-31T16:45:53.031Z,3.46
2023-01-31T16:48:29.225Z,3.46
2023-01-31T16:51:28.128Z,3.48
2023-01-31T16:54:20.603Z,3.45
2023-01-31T16:57:21.401Z,3.42
2023-01-31T16:59:56.512Z,3.41
2023-01-31T17:02:32.848Z,3.39
2023-01-31T17:05:16.953Z,3.37
2023-01-31T17:07:50.701Z,3.37
2023-01-31T17:10:27.308Z,3.27
2023-01-31T17:13:04.793Z,3.30
2023-01-31T17:15:42.141Z,3.22
2023-01-31T17:18:15.880Z,3.28
2023-01-31T17:20:50.949Z,3.18
2023-01-31T17:23:24.309Z,3.23
2023-01-31T17:25:57.964Z,3.16
2023-01-31T17:28:31.568Z,3.23
2023-01-31T17:31:07.004Z,3.24
2023-01-31T17:33:40.278Z,3.17
2023-01-31T17:36:14.125Z,3.10
2023-01-31T17:38:52.710Z,3.14
2023-01-31T17:41:31.660Z,3.14
2023-01-31T17:44:08.446Z,3.17
2023-01-31T17:46:43.678Z,3.14
2023-01-31T17:49:17.822Z,3.13
2023-01-31T17:52:01.019Z,3.10
2023-01-31T17:54:35.716Z,3.05
2023-01-31T17:57:10.210Z,3.13
2023-01-31T17:59:44.543Z,3.08
2023-01-31T18:02:21.727Z,3.08
2023-01-31T18:05:01.812Z,2.90
2023-01-31T18:07:36.630Z,3.02
2023-01-31T18:10:13.628Z,2.99
2023-01-31T18:12:52.048Z,2.94
2023-01-31T18:15:28.801Z,2.70
2023-01-31T18:18:09.416Z,2.82
2023-01-31T18:20:49.888Z,2.76
2023-01-31T18:23:27.467Z,2.73
2023-01-31T18:26:04.811Z,2.73
2023-01-31T18:28:42.443Z,2.70
2023-01-31T18:31:18.208Z,2.73
2023-01-31T18:33:54.169Z,2.77
2023-01-31T18:36:28.551Z,2.79
2023-01-31T18:39:03.551Z,2.83
2023-01-31T18:41:38.342Z,2.85
2023-01-31T18:44:15.984Z,2.80
2023-01-31T18:46:53.402Z,2.77
2023-01-31T18:49:30.495Z,2.77
2023-01-31T18:52:07.176Z,2.80
2023-01-31T18:54:42.273Z,2.79
2023-01-31T18:57:16.918Z,2.78
2023-01-31T18:59:51.660Z,2.63
2023-01-31T19:02:26.424Z,2.67
2023-01-31T19:05:03.073Z,2.71
2023-01-31T19:07:40.251Z,2.58
2023-01-31T19:10:14.747Z,2.23
2023-01-31T19:12:50.221Z,2.59
2023-01-31T19:15:25.532Z,2.39
2023-01-31T19:18:01.018Z,2.37
2023-01-31T19:20:38.639Z,2.42
2023-01-31T19:23:15.789Z,2.41
2023-01-31T19:25:50.619Z,2.43
2023-01-31T19:28:26.487Z,2.41
2023-01-31T19:31:06.554Z,2.41
2023-01-31T19:33:41.587Z,2.36
2023-01-31T19:36:23.793Z,2.32
2023-01-31T19:39:03.693Z,2.30
2023-01-31T19:41:38.531Z,2.24
2023-01-31T19:44:12.257Z,2.35
2023-01-31T19:46:47.313Z,2.40
2023-01-31T19:49:22.231Z,2.40
2023-01-31T19:51:58.258Z,2.44
2023-01-31T19:54:32.803Z,2.39
2023-01-31T19:57:06.443Z,2.35
2023-01-31T19:59:41.059Z,2.34
2023-01-31T20:02:14.575Z,2.24
2023-01-31T20:04:47.827Z,2.22
2023-01-31T20:07:23.168Z,2.17
2023-01-31T20:09:56.485Z,2.17
2023-01-31T20:12:30.434Z,2.10
2023-01-31T20:15:06.084Z,2.11
2023-01-31T20:17:39.452Z,2.14
2023-01-31T20:20:13.286Z,2.06
2023-01-31T20:22:48.198Z,2.09
2023-01-31T20:25:21.500Z,2.05
2023-01-31T20:27:54.741Z,2.06
2023-01-31T20:30:28.359Z,2.05
2023-01-31T20:33:01.869Z,2.04
2023-01-31T20:35:34.919Z,2.07
2023-01-31T20:38:10.464Z,2.07
2023-01-31T20:40:50.004Z,2.01
2023-01-31T20:43:25.999Z,1.83
2023-01-31T20:46:04.254Z,1.91
2023-01-31T20:48:38.555Z,1.92
2023-01-31T20:51:12.511Z,1.85
2023-01-31T20:53:47.012Z,1.90
2023-01-31T20:56:20.367Z,1.87
2023-01-31T20:58:53.759Z,1.83
2023-01-31T21:01:26.904Z,1.86
2023-01-31T21:04:00.506Z,1.91
2023-01-31T21:06:34.020Z,1.83
2023-01-31T21:09:08.994Z,1.80
2023-01-31T21:11:43.018Z,1.88
2023-01-31T21:14:16.721Z,1.92
2023-01-31T21:16:50.445Z,1.85
2023-01-31T21:19:23.796Z,1.81
2023-01-31T21:21:57.522Z,1.81
2023-01-31T21:24:32.585Z,1.68
2023-01-31T21:27:06.173Z,1.83
2023-01-31T21:29:39.347Z,1.84
2023-01-31T21:32:12.832Z,1.90
2023-01-31T21:34:46.223Z,1.89
2023-01-31T21:37:19.724Z,1.96
2023-01-31T21:39:54.705Z,2.01
2023-01-31T21:42:26.923Z,2.03
2023-01-31T21:45:00.021Z,2.01
2023-01-31T21:47:33.704Z,1.99
2023-01-31T21:50:08.402Z,2.01
2023-01-31T21:52:41.572Z,1.96
2023-01-31T21:55:17.300Z,2.02
2023-01-31T21:57:50.691Z,2.01
2023-01-31T22:00:24.177Z,1.96
2023-01-31T22:02:57.626Z,1.91
2023-01-31T22:05:31.047Z,1.94
2023-01-31T22:08:04.408Z,1.96
2023-01-31T22:10:39.244Z,1.76
2023-01-31T22:13:13.239Z,2.03
2023-01-31T22:15:46.898Z,2.00
2023-01-31T22:18:20.267Z,1.94
2023-01-31T22:20:54.554Z,1.99
2023-01-31T22:23:27.769Z,1.91
2023-01-31T22:26:05.496Z,1.98
2023-01-31T22:28:39.765Z,1.99
2023-01-31T22:31:14.180Z,2.05
2023-01-31T22:33:48.509Z,2.05
2023-01-31T22:36:24.198Z,1.94
2023-01-31T22:38:57.730Z,2.07
2023-01-31T22:41:32.969Z,2.05
2023-01-31T22:44:06.793Z,2.01
2023-01-31T22:46:40.101Z,1.97
2023-01-31T22:49:13.366Z,2.00
2023-01-31T22:51:46.794Z,1.89
2023-01-31T22:54:20.022Z,1.81
2023-01-31T22:56:54.941Z,1.76
2023-01-31T22:59:28.591Z,1.68
2023-01-31T23:02:02.032Z,1.70
2023-01-31T23:04:35.249Z,1.72
2023-01-31T23:07:10.600Z,1.71
2023-01-31T23:09:43.973Z,1.63
2023-01-31T23:12:18.796Z,1.68
2023-01-31T23:14:52.489Z,1.74
2023-01-31T23:17:38.515Z,1.76
2023-01-31T23:20:14.269Z,1.73
2023-01-31T23:22:47.928Z,1.75
2023-01-31T23:25:22.199Z,1.77
2023-01-31T23:27:58.336Z,1.78
2023-01-31T23:30:31.802Z,1.82
2023-01-31T23:33:05.255Z,1.34
2023-01-31T23:35:38.945Z,1.84
2023-01-31T23:38:12.207Z,1.82
2023-01-31T23:40:45.500Z,1.87
2023-01-31T23:43:20.578Z,1.92
2023-01-31T23:45:54.099Z,1.91
2023-01-31T23:48:27.530Z,1.62
2023-01-31T23:51:04.041Z,1.86
2023-01-31T23:53:37.202Z,1.91
2023-01-31T23:56:10.364Z,1.97
2023-01-31T23:58:45.325Z,2.00
